createdAt,value
2022-09-20T00:01:16.390Z,11.51
2022-09-20T00:03:45.728Z,11.55
2022-09-20T00:06:15.030Z,11.65
2022-09-20T00:08:43.006Z,11.85
2022-09-20T00:11:16.060Z,11.78
2022-09-20T00:13:44.427Z,11.53
2022-09-20T00:16:14.890Z,11.70
2022-09-20T00:18:41.838Z,11.78
2022-09-20T00:21:16.492Z,11.83
2022-09-20T00:23:43.175Z,11.74
2022-09-20T00:26:09.660Z,11.69
2022-09-20T00:28:36.262Z,11.83
2022-09-20T00:31:03.332Z,11.90
2022-09-20T00:33:49.756Z,11.94
2022-09-20T00:36:16.644Z,11.88
2022-09-20T00:38:43.199Z,11.74
2022-09-20T00:41:09.978Z,11.86
2022-09-20T00:43:42.578Z,11.83
2022-09-20T00:46:29.415Z,11.76
2022-09-20T00:49:01.440Z,11.81
2022-09-20T00:51:34.838Z,11.79
2022-09-20T00:54:04.884Z,11.59
2022-09-20T00:56:34.758Z,11.59
2022-09-20T00:59:19.891Z,11.59
2022-09-20T01:01:47.453Z,11.78
2022-09-20T01:04:16.667Z,11.54
2022-09-20T01:06:46.081Z,11.45
2022-09-20T01:09:12.685Z,11.40
2022-09-20T01:11:40.593Z,11.36
2022-09-20T01:14:07.663Z,11.57
2022-09-20T01:16:34.982Z,11.65
2022-09-20T01:19:08.313Z,11.65
2022-09-20T01:21:34.930Z,11.64
2022-09-20T01:24:11.421Z,11.80
2022-09-20T01:26:59.020Z,11.86
2022-09-20T01:29:37.709Z,11.81
2022-09-20T01:32:11.725Z,11.92
2022-09-20T01:34:46.191Z,11.93
2022-09-20T01:37:33.152Z,11.93
2022-09-20T01:40:36.797Z,11.70
2022-09-20T01:43:21.683Z,11.79
2022-09-20T01:45:49.802Z,11.74
2022-09-20T01:48:22.288Z,11.68
2022-09-20T01:51:25.055Z,11.68
2022-09-20T01:54:12.591Z,11.74
2022-09-20T01:57:03.701Z,11.73
2022-09-20T01:59:54.769Z,11.65
2022-09-20T02:02:32.700Z,11.48
2022-09-20T02:05:20.936Z,11.52
2022-09-20T02:07:58.969Z,11.54
2022-09-20T02:10:50.105Z,11.56
2022-09-20T02:13:28.411Z,11.59
2022-09-20T02:16:25.264Z,11.46
2022-09-20T02:18:57.932Z,11.58
2022-09-20T02:21:50.775Z,11.68
2022-09-20T02:24:29.909Z,11.50
2022-09-20T02:27:23.180Z,11.40
2022-09-20T02:30:14.693Z,11.46
2022-09-20T02:32:58.421Z,11.27
2022-09-20T02:35:47.205Z,11.23
2022-09-20T02:38:34.145Z,11.28
2022-09-20T02:41:29.704Z,11.22
2022-09-20T02:44:04.257Z,11.28
2022-09-20T02:46:41.151Z,11.33
2022-09-20T02:49:28.752Z,11.38
2022-09-20T02:52:01.381Z,11.39
2022-09-20T02:54:58.801Z,11.20
2022-09-20T02:57:37.061Z,11.10
2022-09-20T03:00:13.143Z,11.01
2022-09-20T03:02:51.437Z,11.00
2022-09-20T03:05:33.045Z,10.99
2022-09-20T03:08:18.350Z,11.00
2022-09-20T03:10:53.904Z,11.00
2022-09-20T03:13:42.112Z,11.00
2022-09-20T03:16:21.422Z,10.87
2022-09-20T03:19:03.093Z,10.80
2022-09-20T03:21:41.505Z,10.82
2022-09-20T03:24:34.503Z,10.99
2022-09-20T03:27:24.475Z,10.98
2022-09-20T03:30:15.130Z,10.87
2022-09-20T03:32:53.740Z,10.72
2022-09-20T03:36:01.200Z,10.82
2022-09-20T03:38:48.381Z,10.78
2022-09-20T03:41:36.865Z,10.69
2022-09-20T03:44:34.464Z,10.73
2022-09-20T03:47:19.729Z,10.58
2022-09-20T03:49:59.298Z,10.72
2022-09-20T03:52:54.774Z,10.56
2022-09-20T03:55:32.883Z,10.47
2022-09-20T03:58:19.380Z,10.29
2022-09-20T04:01:28.019Z,10.45
2022-09-20T04:04:19.565Z,10.42
2022-09-20T04:07:09.133Z,10.38
2022-09-20T04:10:16.586Z,10.46
2022-09-20T04:13:02.002Z,10.41
2022-09-20T04:15:54.923Z,10.47
2022-09-20T04:18:50.368Z,10.59
2022-09-20T04:21:28.978Z,10.50
2022-09-20T04:24:24.025Z,10.52
2022-09-20T04:27:00.491Z,10.59
2022-09-20T04:29:39.213Z,10.60
2022-09-20T04:32:27.887Z,10.63
2022-09-20T04:35:19.193Z,10.59
2022-09-20T04:37:47.506Z,10.77
2022-09-20T04:40:22.195Z,10.60
2022-09-20T04:43:10.058Z,10.75
2022-09-20T04:45:58.295Z,10.73
2022-09-20T04:48:56.572Z,10.80
2022-09-20T04:52:10.301Z,10.84
2022-09-20T04:54:54.747Z,10.95
2022-09-20T04:57:48.966Z,10.95
2022-09-20T05:00:19.312Z,11.11
2022-09-20T05:03:16.543Z,10.94
2022-09-20T05:06:28.146Z,11.02
2022-09-20T05:09:23.856Z,11.04
2022-09-20T05:11:57.809Z,11.07
2022-09-20T05:14:40.915Z,11.02
2022-09-20T05:17:45.971Z,11.07
2022-09-20T05:20:25.268Z,10.98
2022-09-20T05:23:14.502Z,11.22
2022-09-20T05:25:56.502Z,11.39
2022-09-20T05:28:31.510Z,11.27
2022-09-20T05:31:04.851Z,11.51
2022-09-20T05:33:37.318Z,11.58
2022-09-20T05:36:03.759Z,11.63
2022-09-20T05:38:42.792Z,11.67
2022-09-20T05:41:18.729Z,11.65
2022-09-20T05:44:02.175Z,11.57
2022-09-20T05:46:49.494Z,11.56
2022-09-20T05:49:25.062Z,11.80
2022-09-20T05:52:09.889Z,11.83
2022-09-20T05:54:47.559Z,11.78
2022-09-20T05:57:32.865Z,11.60
2022-09-20T06:00:08.526Z,11.55
2022-09-20T06:02:43.614Z,11.50
2022-09-20T06:05:25.223Z,11.54
2022-09-20T06:08:24.301Z,11.82
2022-09-20T06:11:12.694Z,11.70
2022-09-20T06:14:15.168Z,11.87
2022-09-20T06:16:47.991Z,12.18
2022-09-20T06:19:36.947Z,11.91
2022-09-20T06:22:24.933Z,12.10
2022-09-20T06:25:09.780Z,12.24
2022-09-20T06:27:43.436Z,12.16
2022-09-20T06:30:20.122Z,12.24
2022-09-20T06:33:10.209Z,12.41
2022-09-20T06:35:45.290Z,12.35
2022-09-20T06:38:41.839Z,12.45
2022-09-20T06:41:30.654Z,12.57
2022-09-20T06:43:59.121Z,12.45
2022-09-20T06:46:30.850Z,12.28
2022-09-20T06:48:58.205Z,12.39
2022-09-20T06:51:27.430Z,12.97
2022-09-20T06:53:56.043Z,12.80
2022-09-20T06:56:26.724Z,12.66
2022-09-20T06:58:54.100Z,12.48
2022-09-20T07:01:29.729Z,12.62
2022-09-20T07:03:57.586Z,12.34
2022-09-20T07:06:24.173Z,12.37
2022-09-20T07:08:50.913Z,12.23
2022-09-20T07:11:18.068Z,12.60
2022-09-20T07:13:45.568Z,12.84
2022-09-20T07:16:16.562Z,13.68
2022-09-20T07:18:43.211Z,13.48
2022-09-20T07:21:17.836Z,13.33
2022-09-20T07:23:48.669Z,13.44
2022-09-20T07:26:20.349Z,13.71
2022-09-20T07:28:47.204Z,13.61
2022-09-20T07:31:14.013Z,13.72
2022-09-20T07:33:40.699Z,13.38
2022-09-20T07:36:07.448Z,13.36
2022-09-20T07:38:34.026Z,13.21
2022-09-20T07:41:02.394Z,13.30
2022-09-20T07:43:31.000Z,13.50
2022-09-20T07:45:59.409Z,13.83
2022-09-20T07:48:36.960Z,14.44
2022-09-20T07:51:12.886Z,14.34
2022-09-20T07:53:40.172Z,14.04
2022-09-20T07:56:08.048Z,14.51
2022-09-20T07:58:35.806Z,15.00
2022-09-20T08:01:09.214Z,15.04
2022-09-20T08:03:36.226Z,14.86
2022-09-20T08:06:08.601Z,14.74
2022-09-20T08:08:36.975Z,14.63
2022-09-20T08:11:06.767Z,14.64
2022-09-20T08:16:29.064Z,14.23
2022-09-20T08:19:00.958Z,14.57
2022-09-20T08:21:31.542Z,14.33
2022-09-20T08:23:59.590Z,14.66
2022-09-20T08:26:27.802Z,15.02
2022-09-20T08:28:56.176Z,14.62
2022-09-20T08:31:25.502Z,14.29
2022-09-20T08:33:53.023Z,14.32
2022-09-20T08:36:22.089Z,13.85
2022-09-20T08:41:46.012Z,14.12
2022-09-20T08:44:27.896Z,14.11
2022-09-20T08:47:25.065Z,14.29
2022-09-20T08:49:57.684Z,14.23
2022-09-20T08:52:37.012Z,14.19
2022-09-20T08:55:17.924Z,14.17
2022-09-20T08:57:49.137Z,14.71
2022-09-20T09:00:19.312Z,14.67
2022-09-20T09:02:46.857Z,14.94
2022-09-20T09:05:31.694Z,15.16
2022-09-20T09:08:00.762Z,14.99
2022-09-20T09:10:54.091Z,15.09
2022-09-20T09:13:33.119Z,14.93
2022-09-20T09:16:03.282Z,15.32
2022-09-20T09:18:39.306Z,15.26
2022-09-20T09:21:08.615Z,15.41
2022-09-20T09:23:49.504Z,15.31
2022-09-20T09:26:22.704Z,15.32
2022-09-20T09:29:16.955Z,15.95
2022-09-20T09:31:45.283Z,16.00
2022-09-20T09:34:25.140Z,15.60
2022-09-20T09:36:51.953Z,16.16
2022-09-20T09:39:29.078Z,15.63
2022-09-20T09:41:56.518Z,16.53
2022-09-20T09:44:25.712Z,16.30
2022-09-20T09:46:53.665Z,16.34
2022-09-20T09:49:36.256Z,15.75
2022-09-20T09:52:24.581Z,15.98
2022-09-20T09:54:55.189Z,15.92
2022-09-20T09:58:06.549Z,14.96
2022-09-20T10:00:35.776Z,14.98
2022-09-20T10:03:05.157Z,14.86
2022-09-20T10:06:14.831Z,15.68
2022-09-20T10:08:51.107Z,16.40
2022-09-20T10:11:28.568Z,15.96
2022-09-20T10:14:12.586Z,15.31
2022-09-20T10:16:41.797Z,15.17
2022-09-20T10:19:34.717Z,15.49
2022-09-20T10:22:34.277Z,15.46
2022-09-20T10:25:00.712Z,15.70
2022-09-20T10:28:07.327Z,15.77
2022-09-20T10:30:58.372Z,16.11
2022-09-20T10:33:34.361Z,16.43
2022-09-20T10:36:13.150Z,16.01
2022-09-20T10:39:01.253Z,15.68
2022-09-20T10:42:04.714Z,15.40
2022-09-20T10:44:58.111Z,15.69
2022-09-20T10:47:33.213Z,15.52
2022-09-20T10:50:12.004Z,15.39
2022-09-20T10:53:17.089Z,15.04
2022-09-20T10:56:08.400Z,15.07
2022-09-20T10:59:12.316Z,14.52
2022-09-20T11:01:41.837Z,14.55
2022-09-20T11:04:38.487Z,14.54
2022-09-20T11:07:32.885Z,14.62
2022-09-20T11:10:04.956Z,14.64
2022-09-20T11:12:39.794Z,14.54
2022-09-20T11:15:19.168Z,14.42
2022-09-20T11:18:05.997Z,14.62
2022-09-20T11:20:47.570Z,14.64
2022-09-20T11:23:22.616Z,14.63
2022-09-20T11:26:04.894Z,14.64
2022-09-20T11:28:37.554Z,14.86
2022-09-20T11:31:55.641Z,15.02
2022-09-20T11:34:37.557Z,15.07
2022-09-20T11:37:04.208Z,14.87
2022-09-20T11:39:42.436Z,15.02
2022-09-20T11:42:16.443Z,15.15
2022-09-20T11:44:43.508Z,15.28
2022-09-20T11:47:50.339Z,15.54
2022-09-20T11:51:00.635Z,15.88
2022-09-20T11:53:45.869Z,16.68
2022-09-20T11:56:15.457Z,16.75
2022-09-20T11:58:48.319Z,16.64
2022-09-20T12:01:28.232Z,16.30
2022-09-20T12:04:30.549Z,16.05
2022-09-20T12:06:58.657Z,16.13
2022-09-20T12:09:42.393Z,16.77
2022-09-20T12:12:33.703Z,16.56
2022-09-20T12:15:03.034Z,16.24
2022-09-20T12:17:52.594Z,16.12
2022-09-20T12:20:44.892Z,15.77
2022-09-20T12:23:39.432Z,15.56
2022-09-20T12:26:07.682Z,15.68
2022-09-20T12:28:40.014Z,15.83
2022-09-20T12:31:21.933Z,15.54
2022-09-20T12:34:24.597Z,15.43
2022-09-20T12:36:53.677Z,14.90
2022-09-20T12:39:30.068Z,14.68
2022-09-20T12:42:12.130Z,14.43
2022-09-20T12:44:38.653Z,14.24
2022-09-20T12:47:11.149Z,14.13
2022-09-20T12:50:05.219Z,14.46
2022-09-20T12:52:53.371Z,14.39
2022-09-20T12:55:29.999Z,14.43
2022-09-20T12:58:06.439Z,14.52
2022-09-20T13:00:41.971Z,14.70
2022-09-20T13:03:21.157Z,14.58
2022-09-20T13:05:52.640Z,14.58
2022-09-20T13:08:25.956Z,14.87
2022-09-20T13:11:09.195Z,15.41
2022-09-20T13:13:35.633Z,15.45
2022-09-20T13:16:06.028Z,15.46
2022-09-20T13:18:36.148Z,15.61
2022-09-20T13:21:07.248Z,15.82
2022-09-20T13:23:45.452Z,15.87
2022-09-20T13:26:13.805Z,16.02
2022-09-20T13:28:51.507Z,16.74
2022-09-20T13:31:21.109Z,16.55
2022-09-20T13:33:49.123Z,16.69
2022-09-20T13:36:27.666Z,16.52
2022-09-20T13:38:57.015Z,16.36
2022-09-20T13:41:27.560Z,15.79
2022-09-20T13:43:54.195Z,15.96
2022-09-20T13:46:29.831Z,16.05
2022-09-20T13:49:20.730Z,16.45
2022-09-20T13:51:48.883Z,16.31
2022-09-20T13:54:29.390Z,16.18
2022-09-20T13:57:02.452Z,16.19
2022-09-20T13:59:40.500Z,16.10
2022-09-20T14:02:19.516Z,16.04
2022-09-20T14:04:46.709Z,16.25
2022-09-20T14:07:15.131Z,16.35
2022-09-20T14:09:41.789Z,16.19
2022-09-20T14:12:11.336Z,17.62
2022-09-20T14:14:39.102Z,17.94
2022-09-20T14:17:09.571Z,18.74
2022-09-20T14:19:41.407Z,19.37
2022-09-20T14:22:22.880Z,17.42
2022-09-20T14:25:13.420Z,17.10
2022-09-20T14:27:40.850Z,17.51
2022-09-20T14:30:27.681Z,17.36
2022-09-20T14:32:56.536Z,17.14
2022-09-20T14:35:23.479Z,16.60
2022-09-20T14:37:53.129Z,16.52
2022-09-20T14:40:40.792Z,15.95
2022-09-20T14:43:20.905Z,15.70
2022-09-20T14:45:56.998Z,15.91
2022-09-20T14:48:23.576Z,15.57
2022-09-20T14:51:09.659Z,15.80
2022-09-20T14:53:38.229Z,15.86
2022-09-20T14:56:04.881Z,15.41
2022-09-20T14:58:32.404Z,15.73
2022-09-20T15:01:07.216Z,15.73
2022-09-20T15:03:41.566Z,15.82
2022-09-20T15:06:12.818Z,15.75
2022-09-20T15:08:45.419Z,16.22
2022-09-20T15:11:14.645Z,16.31
2022-09-20T15:13:41.455Z,16.22
2022-09-20T15:16:08.108Z,16.71
2022-09-20T15:18:41.211Z,16.51
2022-09-20T15:21:07.998Z,17.15
2022-09-20T15:23:35.629Z,17.12
2022-09-20T15:26:02.195Z,18.09
2022-09-20T15:28:29.125Z,17.75
2022-09-20T15:30:58.589Z,18.23
2022-09-20T15:33:25.607Z,17.78
2022-09-20T15:35:52.211Z,17.38
2022-09-20T15:38:19.578Z,17.56
2022-09-20T15:40:48.916Z,17.40
2022-09-20T15:43:19.537Z,17.13
2022-09-20T15:45:51.589Z,17.64
2022-09-20T15:48:22.895Z,18.04
2022-09-20T15:51:02.409Z,17.88
2022-09-20T15:53:37.031Z,17.86
2022-09-20T15:56:13.610Z,16.49
2022-09-20T15:58:46.179Z,16.68
2022-09-20T16:01:16.690Z,16.48
2022-09-20T16:03:45.100Z,16.54
2022-09-20T16:06:13.279Z,16.00
2022-09-20T16:08:41.928Z,16.01
2022-09-20T16:11:12.606Z,16.04
2022-09-20T16:13:39.371Z,15.54
2022-09-20T16:16:08.616Z,15.41
2022-09-20T16:18:55.066Z,15.35
2022-09-20T16:21:21.926Z,15.34
2022-09-20T16:23:53.694Z,15.50
2022-09-20T16:26:22.484Z,15.48
2022-09-20T16:28:49.255Z,15.30
2022-09-20T16:31:36.828Z,15.33
2022-09-20T16:34:05.968Z,15.21
2022-09-20T16:36:33.460Z,15.17
2022-09-20T16:39:01.206Z,15.10
2022-09-20T16:41:28.685Z,15.06
2022-09-20T16:43:55.633Z,15.11
2022-09-20T16:46:27.218Z,15.04
2022-09-20T16:49:00.257Z,15.05
2022-09-20T16:51:34.650Z,15.03
2022-09-20T16:54:02.871Z,14.79
2022-09-20T16:56:33.953Z,14.82
2022-09-20T16:59:05.405Z,14.81
2022-09-20T17:01:32.262Z,14.66
2022-09-20T17:03:59.158Z,14.67
2022-09-20T17:06:25.841Z,14.58
2022-09-20T17:08:58.811Z,14.35
2022-09-20T17:11:27.990Z,14.27
2022-09-20T17:13:55.849Z,14.13
2022-09-20T17:16:27.885Z,14.16
2022-09-20T17:18:56.759Z,14.08
2022-09-20T17:21:23.298Z,13.96
2022-09-20T17:23:55.103Z,14.02
2022-09-20T17:26:27.583Z,14.03
2022-09-20T17:28:59.057Z,13.96
2022-09-20T17:31:33.694Z,13.91
2022-09-20T17:34:02.224Z,13.63
2022-09-20T17:36:31.625Z,13.73
2022-09-20T17:39:03.855Z,13.63
2022-09-20T17:41:32.799Z,13.56
2022-09-20T17:44:00.756Z,13.39
2022-09-20T17:46:31.849Z,13.52
2022-09-20T17:49:04.680Z,13.39
2022-09-20T17:51:34.751Z,13.39
2022-09-20T17:54:02.597Z,13.46
2022-09-20T17:56:31.052Z,13.27
2022-09-20T17:58:59.136Z,13.26
2022-09-20T18:01:27.341Z,13.27
2022-09-20T18:03:56.396Z,13.19
2022-09-20T18:06:26.691Z,13.14
2022-09-20T18:08:58.676Z,13.17
2022-09-20T18:11:33.412Z,13.04
2022-09-20T18:14:01.492Z,12.93
2022-09-20T18:16:28.196Z,12.79
2022-09-20T18:18:54.863Z,12.50
2022-09-20T18:21:24.036Z,12.57
2022-09-20T18:23:52.103Z,12.56
2022-09-20T18:26:24.651Z,12.53
2022-09-20T18:29:04.768Z,12.35
2022-09-20T18:31:46.260Z,12.39
2022-09-20T18:34:18.453Z,12.16
2022-09-20T18:36:54.177Z,12.23
2022-09-20T18:39:25.729Z,12.22
2022-09-20T18:41:53.305Z,12.19
2022-09-20T18:44:21.585Z,12.06
2022-09-20T18:46:49.218Z,12.15
2022-09-20T18:49:16.988Z,11.75
2022-09-20T18:51:44.636Z,11.83
2022-09-20T18:54:11.907Z,12.01
2022-09-20T18:56:43.243Z,12.03
2022-09-20T18:59:21.936Z,11.90
2022-09-20T19:01:54.526Z,11.84
2022-09-20T19:04:46.145Z,11.84
2022-09-20T19:07:28.064Z,11.66
2022-09-20T19:10:08.756Z,11.74
2022-09-20T19:12:50.422Z,11.69
2022-09-20T19:15:35.720Z,11.55
2022-09-20T19:18:11.291Z,11.69
2022-09-20T19:20:52.039Z,11.50
2022-09-20T19:23:36.867Z,11.47
2022-09-20T19:26:22.464Z,11.52
2022-09-20T19:28:51.179Z,11.39
2022-09-20T19:31:29.152Z,11.26
2022-09-20T19:33:58.142Z,11.10
2022-09-20T19:37:08.449Z,11.23
2022-09-20T19:39:53.655Z,11.32
2022-09-20T19:42:25.929Z,11.27
2022-09-20T19:45:16.425Z,11.29
2022-09-20T19:48:06.722Z,11.25
2022-09-20T19:50:46.283Z,11.03
2022-09-20T19:53:14.713Z,10.86
2022-09-20T19:55:47.129Z,10.83
2022-09-20T19:58:15.055Z,10.71
2022-09-20T20:00:46.416Z,10.91
2022-09-20T20:03:14.665Z,10.98
2022-09-20T20:06:11.794Z,11.08
2022-09-20T20:08:41.975Z,11.03
2022-09-20T20:11:40.703Z,11.07
2022-09-20T20:15:01.993Z,11.14
2022-09-20T20:18:07.748Z,10.94
2022-09-20T20:20:47.630Z,10.82
2022-09-20T20:23:35.918Z,10.90
2022-09-20T20:26:08.581Z,10.89
2022-09-20T20:28:37.210Z,10.87
2022-09-20T20:31:04.585Z,10.81
2022-09-20T20:33:32.898Z,10.80
2022-09-20T20:36:01.418Z,10.69
2022-09-20T20:38:28.437Z,10.52
2022-09-20T20:41:09.772Z,10.61
2022-09-20T20:43:39.169Z,10.63
2022-09-20T20:46:08.119Z,10.41
2022-09-20T20:48:36.296Z,10.33
2022-09-20T20:51:04.473Z,10.35
2022-09-20T20:53:36.009Z,10.29
2022-09-20T20:56:22.812Z,10.25
2022-09-20T20:58:49.790Z,10.24
2022-09-20T21:01:21.885Z,10.27
2022-09-20T21:03:53.187Z,10.03
2022-09-20T21:06:21.540Z,10.00
2022-09-20T21:08:49.804Z,10.00
2022-09-20T21:11:25.601Z,9.95
2022-09-20T21:13:53.970Z,9.94
2022-09-20T21:16:23.265Z,9.84
2022-09-20T21:18:50.916Z,10.03
2022-09-20T21:21:27.686Z,10.08
2022-09-20T21:23:58.914Z,10.07
2022-09-20T21:26:27.805Z,10.04
2022-09-20T21:28:59.658Z,9.95
2022-09-20T21:31:28.642Z,9.93
2022-09-20T21:33:55.707Z,9.98
2022-09-20T21:36:24.646Z,10.13
2022-09-20T21:38:51.359Z,10.10
2022-09-20T21:41:19.782Z,10.12
2022-09-20T21:43:47.621Z,9.94
2022-09-20T21:46:17.613Z,9.97
2022-09-20T21:48:44.980Z,9.84
2022-09-20T21:51:13.809Z,9.83
2022-09-20T21:53:41.106Z,9.81
2022-09-20T21:56:10.026Z,9.70
2022-09-20T21:58:40.004Z,9.72
2022-09-20T22:01:12.297Z,9.72
2022-09-20T22:03:40.929Z,9.59
2022-09-20T22:06:15.087Z,9.48
2022-09-20T22:08:46.454Z,9.51
2022-09-20T22:11:14.925Z,9.42
2022-09-20T22:13:43.958Z,9.51
2022-09-20T22:16:16.143Z,9.55
2022-09-20T22:18:44.075Z,9.53
2022-09-20T22:21:23.169Z,9.51
2022-09-20T22:23:52.119Z,9.52
2022-09-20T22:26:21.350Z,9.41
2022-09-20T22:28:51.942Z,9.34
2022-09-20T22:31:24.997Z,9.29
2022-09-20T22:33:54.470Z,9.18
2022-09-20T22:36:23.757Z,9.09
2022-09-20T22:38:51.489Z,9.05
2022-09-20T22:41:19.458Z,9.03
2022-09-20T22:43:46.907Z,9.17
2022-09-20T22:46:19.423Z,9.04
2022-09-20T22:48:46.806Z,8.91
2022-09-20T22:51:18.616Z,8.93
2022-09-20T22:53:46.623Z,9.11
2022-09-20T22:56:16.538Z,9.03
2022-09-20T22:58:48.818Z,9.03
2022-09-20T23:01:18.920Z,8.95
2022-09-20T23:03:48.651Z,9.01
2022-09-20T23:06:27.551Z,8.84
2022-09-20T23:08:57.797Z,8.98
2022-09-20T23:11:25.499Z,9.00
2022-09-20T23:13:57.816Z,8.96
2022-09-20T23:16:27.598Z,9.03
2022-09-20T23:18:55.749Z,8.69
2022-09-20T23:21:23.401Z,8.73
2022-09-20T23:23:54.913Z,8.67
2022-09-20T23:26:22.211Z,8.55
2022-09-20T23:28:57.239Z,8.47
2022-09-20T23:31:24.765Z,8.39
2022-09-20T23:33:54.309Z,8.45
2022-09-20T23:36:22.140Z,8.48
2022-09-20T23:38:49.602Z,8.68
2022-09-20T23:41:19.402Z,8.85
2022-09-20T23:43:46.806Z,8.90
2022-09-20T23:46:15.309Z,8.83
2022-09-20T23:48:42.389Z,8.88
2022-09-20T23:51:14.864Z,8.64
2022-09-20T23:53:42.884Z,8.83
2022-09-20T23:56:10.920Z,8.88
2022-09-20T23:58:39.180Z,8.88
